sensor_id;sensor_type;location;lat;lon;timestamp;pressure;altitude;pressure_sealevel;temperature;humidity
59588;BME280;45412;54.472;18.464;2022-07-10T00:02:56;99656.48;;;12.73;82.16
59588;BME280;45412;54.472;18.464;2022-07-10T00:05:44;99656.45;;;12.71;82.17
59588;BME280;45412;54.472;18.464;2022-07-10T00:08:32;99659.08;;;12.70;82.57
59588;BME280;45412;54.472;18.464;2022-07-10T00:11:20;99666.42;;;12.71;82.46
59588;BME280;45412;54.472;18.464;2022-07-10T00:14:08;99664.69;;;12.71;82.73
59588;BME280;45412;54.472;18.464;2022-07-10T00:16:56;99660.52;;;12.71;83.06
59588;BME280;45412;54.472;18.464;2022-07-10T00:19:45;99656.85;;;12.71;82.89
59588;BME280;45412;54.472;18.464;2022-07-10T00:22:34;99651.30;;;12.71;82.25
59588;BME280;45412;54.472;18.464;2022-07-10T00:25:25;99652.92;;;12.73;82.18
59588;BME280;45412;54.472;18.464;2022-07-10T00:28:14;99649.08;;;12.76;82.43
59588;BME280;45412;54.472;18.464;2022-07-10T00:31:02;99644.64;;;12.77;82.87
59588;BME280;45412;54.472;18.464;2022-07-10T00:33:50;99642.21;;;12.77;83.60
59588;BME280;45412;54.472;18.464;2022-07-10T00:36:39;99636.98;;;12.76;83.98
59588;BME280;45412;54.472;18.464;2022-07-10T00:39:27;99630.09;;;12.73;84.52
59588;BME280;45412;54.472;18.464;2022-07-10T00:42:17;99626.81;;;12.68;84.46
59588;BME280;45412;54.472;18.464;2022-07-10T00:45:06;99622.20;;;12.66;84.30
59588;BME280;45412;54.472;18.464;2022-07-10T00:47:54;99615.72;;;12.65;84.36
59588;BME280;45412;54.472;18.464;2022-07-10T00:50:44;99616.80;;;12.65;84.64
59588;BME280;45412;54.472;18.464;2022-07-10T00:53:33;99611.08;;;12.64;84.40
59588;BME280;45412;54.472;18.464;2022-07-10T00:56:25;99609.52;;;12.61;84.12
59588;BME280;45412;54.472;18.464;2022-07-10T00:59:13;99603.93;;;12.56;83.92
59588;BME280;45412;54.472;18.464;2022-07-10T01:02:04;99599.48;;;12.50;83.70
59588;BME280;45412;54.472;18.464;2022-07-10T01:04:52;99597.44;;;12.45;83.60
59588;BME280;45412;54.472;18.464;2022-07-10T01:07:41;99597.55;;;12.40;83.23
59588;BME280;45412;54.472;18.464;2022-07-10T01:10:29;99597.70;;;12.35;83.08
59588;BME280;45412;54.472;18.464;2022-07-10T01:13:17;99599.45;;;12.30;83.08
59588;BME280;45412;54.472;18.464;2022-07-10T01:16:06;99597.23;;;12.24;83.40
59588;BME280;45412;54.472;18.464;2022-07-10T01:18:54;99591.05;;;12.22;83.73
59588;BME280;45412;54.472;18.464;2022-07-10T01:21:42;99590.21;;;12.21;83.85
59588;BME280;45412;54.472;18.464;2022-07-10T01:24:30;99586.20;;;12.23;84.00
59588;BME280;45412;54.472;18.464;2022-07-10T01:27:19;99586.11;;;12.23;83.99
59588;BME280;45412;54.472;18.464;2022-07-10T01:30:08;99584.89;;;12.25;84.51
59588;BME280;45412;54.472;18.464;2022-07-10T01:32:56;99583.45;;;12.25;85.54
59588;BME280;45412;54.472;18.464;2022-07-10T01:35:44;99583.21;;;12.26;86.47
59588;BME280;45412;54.472;18.464;2022-07-10T01:38:32;99583.11;;;12.25;86.41
59588;BME280;45412;54.472;18.464;2022-07-10T01:41:21;99582.93;;;12.25;86.96
59588;BME280;45412;54.472;18.464;2022-07-10T01:44:10;99583.55;;;12.24;86.96
59588;BME280;45412;54.472;18.464;2022-07-10T01:46:57;99578.59;;;12.24;87.40
59588;BME280;45412;54.472;18.464;2022-07-10T01:49:45;99578.61;;;12.24;87.87
59588;BME280;45412;54.472;18.464;2022-07-10T01:52:33;99578.49;;;12.23;88.39
59588;BME280;45412;54.472;18.464;2022-07-10T01:55:21;99574.71;;;12.20;89.70
59588;BME280;45412;54.472;18.464;2022-07-10T01:58:09;99572.72;;;12.14;90.40
59588;BME280;45412;54.472;18.464;2022-07-10T02:00:58;99575.09;;;12.08;91.81
59588;BME280;45412;54.472;18.464;2022-07-10T02:03:46;99570.91;;;12.03;92.43
59588;BME280;45412;54.472;18.464;2022-07-10T02:06:52;99565.60;;;11.99;93.10
59588;BME280;45412;54.472;18.464;2022-07-10T02:09:41;99567.39;;;11.95;93.95
59588;BME280;45412;54.472;18.464;2022-07-10T02:12:29;99561.85;;;11.89;94.97
59588;BME280;45412;54.472;18.464;2022-07-10T02:15:17;99562.23;;;11.83;95.11
59588;BME280;45412;54.472;18.464;2022-07-10T02:18:05;99561.95;;;11.80;95.43
59588;BME280;45412;54.472;18.464;2022-07-10T02:20:53;99557.66;;;11.79;95.89
59588;BME280;45412;54.472;18.464;2022-07-10T02:23:41;99560.54;;;11.76;96.17
59588;BME280;45412;54.472;18.464;2022-07-10T02:26:29;99560.20;;;11.74;96.41
59588;BME280;45412;54.472;18.464;2022-07-10T02:29:18;99553.46;;;11.72;97.15
59588;BME280;45412;54.472;18.464;2022-07-10T02:32:07;99553.20;;;11.68;97.42
59588;BME280;45412;54.472;18.464;2022-07-10T02:34:56;99551.95;;;11.67;97.56
59588;BME280;45412;54.472;18.464;2022-07-10T02:37:44;99544.70;;;11.64;98.42
59588;BME280;45412;54.472;18.464;2022-07-10T02:40:31;99543.80;;;11.63;98.51
59588;BME280;45412;54.472;18.464;2022-07-10T02:43:19;99545.52;;;11.59;98.77
59588;BME280;45412;54.472;18.464;2022-07-10T02:46:08;99543.49;;;11.58;98.98
59588;BME280;45412;54.472;18.464;2022-07-10T02:48:56;99543.45;;;11.54;99.13
59588;BME280;45412;54.472;18.464;2022-07-10T02:51:44;99540.95;;;11.51;99.33
59588;BME280;45412;54.472;18.464;2022-07-10T02:54:32;99539.69;;;11.51;99.36
59588;BME280;45412;54.472;18.464;2022-07-10T02:57:20;99542.87;;;11.53;99.06
59588;BME280;45412;54.472;18.464;2022-07-10T03:00:09;99534.73;;;11.55;99.28
59588;BME280;45412;54.472;18.464;2022-07-10T03:02:58;99530.53;;;11.54;99.48
59588;BME280;45412;54.472;18.464;2022-07-10T03:05:46;99526.31;;;11.53;99.71
59588;BME280;45412;54.472;18.464;2022-07-10T03:08:34;99521.34;;;11.53;99.87
59588;BME280;45412;54.472;18.464;2022-07-10T03:11:23;99525.21;;;11.52;99.96
59588;BME280;45412;54.472;18.464;2022-07-10T03:14:11;99527.49;;;11.50;99.52
59588;BME280;45412;54.472;18.464;2022-07-10T03:16:59;99527.58;;;11.51;99.48
59588;BME280;45412;54.472;18.464;2022-07-10T03:19:47;99529.15;;;11.51;99.46
59588;BME280;45412;54.472;18.464;2022-07-10T03:22:36;99526.52;;;11.53;99.94
59588;BME280;45412;54.472;18.464;2022-07-10T03:25:24;99531.12;;;11.53;100.00
59588;BME280;45412;54.472;18.464;2022-07-10T03:28:12;99528.48;;;11.57;100.00
59588;BME280;45412;54.472;18.464;2022-07-10T03:31:01;99531.48;;;11.63;100.00
59588;BME280;45412;54.472;18.464;2022-07-10T03:33:50;99531.80;;;11.69;100.00
59588;BME280;45412;54.472;18.464;2022-07-10T03:36:40;99533.57;;;11.75;99.98
59588;BME280;45412;54.472;18.464;2022-07-10T03:39:29;99530.20;;;11.85;99.83
59588;BME280;45412;54.472;18.464;2022-07-10T03:42:17;99530.75;;;11.97;99.66
59588;BME280;45412;54.472;18.464;2022-07-10T03:45:06;99526.85;;;12.06;99.03
59588;BME280;45412;54.472;18.464;2022-07-10T03:47:54;99526.09;;;12.13;98.68
59588;BME280;45412;54.472;18.464;2022-07-10T03:50:42;99517.23;;;12.20;98.24
59588;BME280;45412;54.472;18.464;2022-07-10T03:53:30;99513.35;;;12.28;98.21
59588;BME280;45412;54.472;18.464;2022-07-10T03:56:18;99513.15;;;12.28;97.47
59588;BME280;45412;54.472;18.464;2022-07-10T03:59:24;99514.77;;;12.23;97.20
59588;BME280;45412;54.472;18.464;2022-07-10T04:02:12;99519.16;;;12.22;97.22
59588;BME280;45412;54.472;18.464;2022-07-10T04:05:00;99515.27;;;12.22;97.47
59588;BME280;45412;54.472;18.464;2022-07-10T04:07:48;99514.66;;;12.25;97.49
59588;BME280;45412;54.472;18.464;2022-07-10T04:10:37;99514.27;;;12.29;97.14
59588;BME280;45412;54.472;18.464;2022-07-10T04:13:26;99516.02;;;12.39;96.66
59588;BME280;45412;54.472;18.464;2022-07-10T04:16:14;99514.48;;;12.48;96.30
59588;BME280;45412;54.472;18.464;2022-07-10T04:19:01;99520.95;;;12.58;96.05
59588;BME280;45412;54.472;18.464;2022-07-10T04:21:49;99517.70;;;12.70;95.58
59588;BME280;45412;54.472;18.464;2022-07-10T04:24:38;99516.53;;;12.77;95.19
59588;BME280;45412;54.472;18.464;2022-07-10T04:27:29;99509.07;;;12.81;94.84
59588;BME280;45412;54.472;18.464;2022-07-10T04:30:16;99504.07;;;12.84;94.45
59588;BME280;45412;54.472;18.464;2022-07-10T04:33:04;99503.34;;;12.85;93.95
59588;BME280;45412;54.472;18.464;2022-07-10T04:35:53;99504.97;;;12.92;94.22
59588;BME280;45412;54.472;18.464;2022-07-10T04:38:41;99509.16;;;13.05;93.79
59588;BME280;45412;54.472;18.464;2022-07-10T04:41:28;99507.14;;;13.16;93.24
59588;BME280;45412;54.472;18.464;2022-07-10T04:44:18;99506.63;;;13.26;92.77
59588;BME280;45412;54.472;18.464;2022-07-10T04:47:06;99508.56;;;13.34;91.99
59588;BME280;45412;54.472;18.464;2022-07-10T04:49:55;99509.00;;;13.41;92.01
59588;BME280;45412;54.472;18.464;2022-07-10T04:52:42;99504.85;;;13.38;91.54
59588;BME280;45412;54.472;18.464;2022-07-10T04:55:30;99506.87;;;13.39;91.92
59588;BME280;45412;54.472;18.464;2022-07-10T04:58:21;99507.30;;;13.42;91.65
59588;BME280;45412;54.472;18.464;2022-07-10T05:01:09;99507.60;;;13.42;91.92
59588;BME280;45412;54.472;18.464;2022-07-10T05:03:57;99509.85;;;13.43;92.31
59588;BME280;45412;54.472;18.464;2022-07-10T05:06:45;99503.07;;;13.46;92.65
59588;BME280;45412;54.472;18.464;2022-07-10T05:09:33;99500.98;;;13.59;92.84
59588;BME280;45412;54.472;18.464;2022-07-10T05:12:21;99501.84;;;13.73;92.45
59588;BME280;45412;54.472;18.464;2022-07-10T05:15:10;99502.77;;;13.82;92.24
59588;BME280;45412;54.472;18.464;2022-07-10T05:17:58;99504.77;;;13.94;92.24
59588;BME280;45412;54.472;18.464;2022-07-10T05:20:49;99507.52;;;14.03;90.93
59588;BME280;45412;54.472;18.464;2022-07-10T05:23:39;99510.72;;;14.06;90.28
59588;BME280;45412;54.472;18.464;2022-07-10T05:26:27;99513.52;;;14.09;89.92
59588;BME280;45412;54.472;18.464;2022-07-10T05:29:15;99513.31;;;14.04;89.89
59588;BME280;45412;54.472;18.464;2022-07-10T05:32:04;99511.98;;;14.08;89.95
59588;BME280;45412;54.472;18.464;2022-07-10T05:34:52;99511.77;;;14.17;89.49
59588;BME280;45412;54.472;18.464;2022-07-10T05:37:41;99508.73;;;14.31;89.13
59588;BME280;45412;54.472;18.464;2022-07-10T05:40:29;99511.94;;;14.48;88.64
59588;BME280;45412;54.472;18.464;2022-07-10T05:43:17;99508.48;;;14.56;87.76
59588;BME280;45412;54.472;18.464;2022-07-10T05:46:05;99505.48;;;14.63;87.34
59588;BME280;45412;54.472;18.464;2022-07-10T05:48:55;99506.57;;;14.75;86.75
59588;BME280;45412;54.472;18.464;2022-07-10T05:51:43;99505.48;;;14.89;85.92
59588;BME280;45412;54.472;18.464;2022-07-10T05:54:32;99511.54;;;15.03;84.97
59588;BME280;45412;54.472;18.464;2022-07-10T05:57:20;99512.61;;;15.16;84.44
59588;BME280;45412;54.472;18.464;2022-07-10T06:00:09;99515.83;;;15.33;83.90
59588;BME280;45412;54.472;18.464;2022-07-10T06:03:00;99517.55;;;15.44;83.67
59588;BME280;45412;54.472;18.464;2022-07-10T06:05:48;99518.70;;;15.60;82.85
59588;BME280;45412;54.472;18.464;2022-07-10T06:08:36;99514.95;;;15.80;82.37
59588;BME280;45412;54.472;18.464;2022-07-10T06:11:24;99513.70;;;16.36;80.11
59588;BME280;45412;54.472;18.464;2022-07-10T06:14:12;99518.25;;;17.22;78.63
59588;BME280;45412;54.472;18.464;2022-07-10T06:17:00;99508.09;;;18.27;73.22
59588;BME280;45412;54.472;18.464;2022-07-10T06:19:49;99506.98;;;19.11;68.71
59588;BME280;45412;54.472;18.464;2022-07-10T06:22:37;99506.13;;;19.91;65.97
59588;BME280;45412;54.472;18.464;2022-07-10T06:25:25;99501.23;;;19.96;63.89
59588;BME280;45412;54.472;18.464;2022-07-10T06:28:13;99504.77;;;19.73;63.14
59588;BME280;45412;54.472;18.464;2022-07-10T06:31:01;99495.80;;;20.36;61.49
59588;BME280;45412;54.472;18.464;2022-07-10T06:33:50;99495.06;;;20.64;60.50
59588;BME280;45412;54.472;18.464;2022-07-10T06:36:38;99493.39;;;21.12;58.99
59588;BME280;45412;54.472;18.464;2022-07-10T06:39:26;99493.25;;;21.33;58.34
59588;BME280;45412;54.472;18.464;2022-07-10T06:42:16;99499.45;;;21.35;57.63
59588;BME280;45412;54.472;18.464;2022-07-10T06:45:09;99505.43;;;20.73;57.95
59588;BME280;45412;54.472;18.464;2022-07-10T06:47:57;99496.38;;;20.70;58.36
59588;BME280;45412;54.472;18.464;2022-07-10T06:50:49;99498.92;;;20.72;57.89
59588;BME280;45412;54.472;18.464;2022-07-10T06:53:36;99490.00;;;20.36;58.27
59588;BME280;45412;54.472;18.464;2022-07-10T06:56:25;99491.58;;;19.87;59.88
59588;BME280;45412;54.472;18.464;2022-07-10T06:59:13;99500.61;;;19.37;62.47
59588;BME280;45412;54.472;18.464;2022-07-10T07:02:02;99496.92;;;19.33;63.57
59588;BME280;45412;54.472;18.464;2022-07-10T07:04:50;99492.05;;;20.40;60.44
59588;BME280;45412;54.472;18.464;2022-07-10T07:07:39;99497.62;;;20.89;57.66
59588;BME280;45412;54.472;18.464;2022-07-10T07:10:27;99489.91;;;20.61;58.30
59588;BME280;45412;54.472;18.464;2022-07-10T07:13:14;99493.73;;;21.08;57.29
59588;BME280;45412;54.472;18.464;2022-07-10T07:16:03;99492.35;;;21.49;55.69
59588;BME280;45412;54.472;18.464;2022-07-10T07:18:54;99497.88;;;20.99;56.82
59588;BME280;45412;54.472;18.464;2022-07-10T07:21:44;99495.34;;;20.34;58.45
59588;BME280;45412;54.472;18.464;2022-07-10T07:24:51;99498.20;;;19.84;60.01
59588;BME280;45412;54.472;18.464;2022-07-10T07:27:40;99503.00;;;19.42;61.56
59588;BME280;45412;54.472;18.464;2022-07-10T07:30:29;99494.61;;;19.13;62.63
59588;BME280;45412;54.472;18.464;2022-07-10T07:33:17;99488.20;;;18.88;63.96
59588;BME280;45412;54.472;18.464;2022-07-10T07:36:07;99489.27;;;18.99;64.37
59588;BME280;45412;54.472;18.464;2022-07-10T07:38:55;99495.77;;;19.49;63.28
59588;BME280;45412;54.472;18.464;2022-07-10T07:41:43;99497.20;;;19.56;62.27
59588;BME280;45412;54.472;18.464;2022-07-10T07:44:31;99495.97;;;19.56;63.11
59588;BME280;45412;54.472;18.464;2022-07-10T07:47:19;99505.65;;;19.47;62.37
59588;BME280;45412;54.472;18.464;2022-07-10T07:50:08;99513.39;;;19.07;63.81
59588;BME280;45412;54.472;18.464;2022-07-10T07:52:56;99500.16;;;18.27;67.38
59588;BME280;45412;54.472;18.464;2022-07-10T07:55:44;99494.98;;;17.31;69.47
59588;BME280;45412;54.472;18.464;2022-07-10T07:58:33;99497.43;;;16.57;73.20
59588;BME280;45412;54.472;18.464;2022-07-10T08:01:21;99505.54;;;15.91;77.12
59588;BME280;45412;54.472;18.464;2022-07-10T08:04:10;99523.99;;;15.57;79.43
59588;BME280;45412;54.472;18.464;2022-07-10T08:06:58;99524.30;;;15.43;80.76
59588;BME280;45412;54.472;18.464;2022-07-10T08:09:52;99521.30;;;15.39;82.95
59588;BME280;45412;54.472;18.464;2022-07-10T08:12:41;99521.48;;;15.39;83.64
59588;BME280;45412;54.472;18.464;2022-07-10T08:15:33;99522.17;;;15.50;83.63
59588;BME280;45412;54.472;18.464;2022-07-10T08:18:22;99519.96;;;15.70;83.50
59588;BME280;45412;54.472;18.464;2022-07-10T08:21:10;99518.53;;;16.30;83.04
59588;BME280;45412;54.472;18.464;2022-07-10T08:23:58;99512.89;;;17.45;79.62
59588;BME280;45412;54.472;18.464;2022-07-10T08:26:46;99504.45;;;19.29;74.67
59588;BME280;45412;54.472;18.464;2022-07-10T08:29:34;99493.81;;;21.47;65.94
59588;BME280;45412;54.472;18.464;2022-07-10T08:32:23;99485.79;;;23.35;58.59
59588;BME280;45412;54.472;18.464;2022-07-10T08:35:11;99482.30;;;25.04;53.36
59588;BME280;45412;54.472;18.464;2022-07-10T08:38:01;99476.98;;;26.44;48.34
59588;BME280;45412;54.472;18.464;2022-07-10T08:40:49;99481.51;;;26.20;47.81
59588;BME280;45412;54.472;18.464;2022-07-10T08:43:38;99482.84;;;26.38;47.38
59588;BME280;45412;54.472;18.464;2022-07-10T08:46:27;99481.48;;;26.66;44.21
59588;BME280;45412;54.472;18.464;2022-07-10T08:49:20;99483.88;;;27.43;42.50
59588;BME280;45412;54.472;18.464;2022-07-10T08:52:43;99485.88;;;27.50;42.07
59588;BME280;45412;54.472;18.464;2022-07-10T08:55:31;99490.55;;;27.38;42.12
59588;BME280;45412;54.472;18.464;2022-07-10T08:58:21;99494.34;;;27.44;41.69
59588;BME280;45412;54.472;18.464;2022-07-10T09:01:10;99491.10;;;27.92;39.47
59588;BME280;45412;54.472;18.464;2022-07-10T09:03:58;99489.98;;;28.45;38.07
59588;BME280;45412;54.472;18.464;2022-07-10T09:06:50;99495.34;;;28.76;37.90
59588;BME280;45412;54.472;18.464;2022-07-10T09:13:01;99489.48;;;28.34;39.27
59588;BME280;45412;54.472;18.464;2022-07-10T09:15:52;99490.71;;;27.13;40.89
59588;BME280;45412;54.472;18.464;2022-07-10T09:18:42;99505.00;;;26.24;40.60
59588;BME280;45412;54.472;18.464;2022-07-10T09:21:33;99496.77;;;26.57;39.48
59588;BME280;45412;54.472;18.464;2022-07-10T09:24:22;99494.36;;;26.41;38.81
59588;BME280;45412;54.472;18.464;2022-07-10T09:27:13;99498.98;;;25.80;39.73
59588;BME280;45412;54.472;18.464;2022-07-10T09:30:04;99501.64;;;25.35;40.65
59588;BME280;45412;54.472;18.464;2022-07-10T09:33:14;99499.05;;;24.99;40.89
59588;BME280;45412;54.472;18.464;2022-07-10T09:36:10;99498.80;;;26.19;39.56
59588;BME280;45412;54.472;18.464;2022-07-10T09:38:58;99496.29;;;27.27;37.41
59588;BME280;45412;54.472;18.464;2022-07-10T09:41:47;99491.44;;;28.02;34.33
59588;BME280;45412;54.472;18.464;2022-07-10T09:44:35;99488.44;;;28.87;33.73
59588;BME280;45412;54.472;18.464;2022-07-10T09:47:25;99494.80;;;29.14;32.75
59588;BME280;45412;54.472;18.464;2022-07-10T09:50:35;99488.09;;;28.58;32.95
59588;BME280;45412;54.472;18.464;2022-07-10T09:53:24;99493.20;;;29.12;31.99
59588;BME280;45412;54.472;18.464;2022-07-10T09:56:14;99499.39;;;28.68;32.67
59588;BME280;45412;54.472;18.464;2022-07-10T09:59:06;99505.64;;;27.50;33.14
59588;BME280;45412;54.472;18.464;2022-07-10T10:01:59;99507.14;;;27.48;34.30
59588;BME280;45412;54.472;18.464;2022-07-10T10:04:48;99507.98;;;28.24;33.76
59588;BME280;45412;54.472;18.464;2022-07-10T10:07:38;99505.81;;;28.07;33.75
59588;BME280;45412;54.472;18.464;2022-07-10T10:10:27;99511.77;;;27.56;33.19
59588;BME280;45412;54.472;18.464;2022-07-10T10:13:22;99518.23;;;27.26;34.22
59588;BME280;45412;54.472;18.464;2022-07-10T10:16:11;99525.25;;;26.45;35.40
59588;BME280;45412;54.472;18.464;2022-07-10T10:19:02;99530.58;;;26.25;35.52
59588;BME280;45412;54.472;18.464;2022-07-10T10:22:09;99519.74;;;26.97;34.55
59588;BME280;45412;54.472;18.464;2022-07-10T10:25:04;99521.59;;;27.01;34.66
59588;BME280;45412;54.472;18.464;2022-07-10T10:27:53;99532.61;;;26.54;34.31
59588;BME280;45412;54.472;18.464;2022-07-10T10:30:44;99533.85;;;26.07;35.36
59588;BME280;45412;54.472;18.464;2022-07-10T10:39:51;99536.86;;;24.01;39.19
59588;BME280;45412;54.472;18.464;2022-07-10T10:42:45;99543.48;;;23.63;39.09
59588;BME280;45412;54.472;18.464;2022-07-10T10:45:33;99539.88;;;24.48;37.95
59588;BME280;45412;54.472;18.464;2022-07-10T10:48:25;99534.91;;;25.16;37.36
59588;BME280;45412;54.472;18.464;2022-07-10T10:57:48;99542.33;;;23.74;40.23
59588;BME280;45412;54.472;18.464;2022-07-10T11:00:36;99548.65;;;23.30;41.80
59588;BME280;45412;54.472;18.464;2022-07-10T11:03:25;99547.11;;;22.96;44.42
59588;BME280;45412;54.472;18.464;2022-07-10T11:06:14;99553.04;;;22.81;45.05
59588;BME280;45412;54.472;18.464;2022-07-10T11:09:29;99553.01;;;22.66;45.29
59588;BME280;45412;54.472;18.464;2022-07-10T11:12:17;99551.12;;;22.42;44.98
59588;BME280;45412;54.472;18.464;2022-07-10T11:15:07;99558.52;;;22.33;45.79
59588;BME280;45412;54.472;18.464;2022-07-10T11:18:07;99553.28;;;22.80;45.40
59588;BME280;45412;54.472;18.464;2022-07-10T11:20:56;99553.66;;;22.83;44.50
59588;BME280;45412;54.472;18.464;2022-07-10T11:24:04;99550.94;;;22.63;43.26
59588;BME280;45412;54.472;18.464;2022-07-10T11:27:51;99550.71;;;22.20;43.82
59588;BME280;45412;54.472;18.464;2022-07-10T11:30:50;99534.23;;;22.94;43.83
59588;BME280;45412;54.472;18.464;2022-07-10T11:33:45;99536.88;;;23.65;42.35
59588;BME280;45412;54.472;18.464;2022-07-10T11:36:33;99533.34;;;24.09;39.40
59588;BME280;45412;54.472;18.464;2022-07-10T11:39:22;99540.34;;;24.13;39.71
59588;BME280;45412;54.472;18.464;2022-07-10T11:42:13;99537.83;;;23.86;40.20
59588;BME280;45412;54.472;18.464;2022-07-10T11:45:33;99539.02;;;23.52;40.92
59588;BME280;45412;54.472;18.464;2022-07-10T11:48:28;99542.07;;;23.37;41.69
59588;BME280;45412;54.472;18.464;2022-07-10T11:51:30;99536.59;;;23.19;40.67
59588;BME280;45412;54.472;18.464;2022-07-10T11:54:20;99534.09;;;23.11;41.00
59588;BME280;45412;54.472;18.464;2022-07-10T11:57:08;99531.71;;;23.12;40.88
59588;BME280;45412;54.472;18.464;2022-07-10T11:59:57;99545.02;;;23.27;40.12
59588;BME280;45412;54.472;18.464;2022-07-10T12:02:45;99545.75;;;23.35;38.71
59588;BME280;45412;54.472;18.464;2022-07-10T12:05:38;99543.35;;;23.18;39.45
59588;BME280;45412;54.472;18.464;2022-07-10T12:08:26;99550.05;;;22.88;39.30
59588;BME280;45412;54.472;18.464;2022-07-10T12:11:16;99555.82;;;22.58;40.01
59588;BME280;45412;54.472;18.464;2022-07-10T12:14:16;99551.37;;;22.41;41.41
59588;BME280;45412;54.472;18.464;2022-07-10T12:17:11;99542.77;;;22.44;41.73
59588;BME280;45412;54.472;18.464;2022-07-10T12:20:04;99550.21;;;22.40;42.46
59588;BME280;45412;54.472;18.464;2022-07-10T12:22:53;99561.91;;;22.31;42.81
59588;BME280;45412;54.472;18.464;2022-07-10T12:25:46;99555.63;;;22.36;42.72
59588;BME280;45412;54.472;18.464;2022-07-10T12:28:55;99552.96;;;22.43;43.13
59588;BME280;45412;54.472;18.464;2022-07-10T12:31:54;99577.36;;;22.21;45.72
59588;BME280;45412;54.472;18.464;2022-07-10T12:34:43;99580.14;;;21.73;47.34
59588;BME280;45412;54.472;18.464;2022-07-10T12:37:31;99584.93;;;21.35;49.47
59588;BME280;45412;54.472;18.464;2022-07-10T12:40:33;99586.98;;;21.16;50.31
59588;BME280;45412;54.472;18.464;2022-07-10T12:43:27;99602.05;;;20.90;50.79
59588;BME280;45412;54.472;18.464;2022-07-10T12:46:24;99600.91;;;20.51;51.37
59588;BME280;45412;54.472;18.464;2022-07-10T12:49:16;99601.17;;;20.24;53.20
59588;BME280;45412;54.472;18.464;2022-07-10T12:52:05;99599.69;;;20.08;54.69
59588;BME280;45412;54.472;18.464;2022-07-10T12:55:21;99599.09;;;19.98;56.02
59588;BME280;45412;54.472;18.464;2022-07-10T12:58:10;99597.90;;;19.99;56.73
59588;BME280;45412;54.472;18.464;2022-07-10T13:00:59;99601.48;;;19.96;56.90
59588;BME280;45412;54.472;18.464;2022-07-10T13:04:13;99602.68;;;19.95;57.60
59588;BME280;45412;54.472;18.464;2022-07-10T13:07:12;99603.30;;;19.89;57.19
59588;BME280;45412;54.472;18.464;2022-07-10T13:10:09;99599.84;;;19.83;56.76
59588;BME280;45412;54.472;18.464;2022-07-10T13:12:57;99605.64;;;19.89;57.60
59588;BME280;45412;54.472;18.464;2022-07-10T13:15:48;99607.21;;;19.92;56.12
59588;BME280;45412;54.472;18.464;2022-07-10T13:18:45;99607.17;;;20.05;55.87
59588;BME280;45412;54.472;18.464;2022-07-10T13:21:37;99607.26;;;20.13;55.31
59588;BME280;45412;54.472;18.464;2022-07-10T13:24:26;99607.46;;;20.13;54.80
59588;BME280;45412;54.472;18.464;2022-07-10T13:27:14;99609.39;;;20.09;54.68
59588;BME280;45412;54.472;18.464;2022-07-10T13:30:04;99604.03;;;20.13;54.28
59588;BME280;45412;54.472;18.464;2022-07-10T13:32:53;99606.33;;;20.29;53.58
59588;BME280;45412;54.472;18.464;2022-07-10T13:35:44;99603.82;;;20.48;53.27
59588;BME280;45412;54.472;18.464;2022-07-10T13:38:34;99602.30;;;20.58;52.23
59588;BME280;45412;54.472;18.464;2022-07-10T13:41:22;99607.83;;;20.63;51.56
59588;BME280;45412;54.472;18.464;2022-07-10T13:44:10;99604.00;;;20.58;50.14
59588;BME280;45412;54.472;18.464;2022-07-10T13:47:03;99612.77;;;20.53;51.32
59588;BME280;45412;54.472;18.464;2022-07-10T13:49:51;99608.39;;;20.56;50.87
59588;BME280;45412;54.472;18.464;2022-07-10T13:52:39;99612.45;;;20.68;48.75
59588;BME280;45412;54.472;18.464;2022-07-10T13:55:29;99615.83;;;20.84;48.80
59588;BME280;45412;54.472;18.464;2022-07-10T13:58:17;99614.67;;;21.04;47.64
59588;BME280;45412;54.472;18.464;2022-07-10T14:01:05;99609.40;;;21.16;46.28
59588;BME280;45412;54.472;18.464;2022-07-10T14:03:53;99609.52;;;21.29;46.66
59588;BME280;45412;54.472;18.464;2022-07-10T14:06:41;99616.50;;;21.19;45.45
59588;BME280;45412;54.472;18.464;2022-07-10T14:09:29;99618.21;;;21.13;45.19
59588;BME280;45412;54.472;18.464;2022-07-10T14:12:18;99618.77;;;21.23;44.97
59588;BME280;45412;54.472;18.464;2022-07-10T14:15:07;99616.41;;;21.19;44.15
59588;BME280;45412;54.472;18.464;2022-07-10T14:17:55;99624.27;;;21.09;45.05
59588;BME280;45412;54.472;18.464;2022-07-10T14:20:46;99626.47;;;20.96;44.54
59588;BME280;45412;54.472;18.464;2022-07-10T14:23:52;99635.73;;;20.68;45.65
59588;BME280;45412;54.472;18.464;2022-07-10T14:26:40;99637.30;;;20.42;46.52
59588;BME280;45412;54.472;18.464;2022-07-10T14:29:28;99641.56;;;20.28;47.35
59588;BME280;45412;54.472;18.464;2022-07-10T14:32:16;99639.67;;;20.18;46.91
59588;BME280;45412;54.472;18.464;2022-07-10T14:35:06;99642.40;;;20.12;46.77
59588;BME280;45412;54.472;18.464;2022-07-10T14:37:54;99640.48;;;20.07;46.44
59588;BME280;45412;54.472;18.464;2022-07-10T14:40:42;99641.23;;;20.11;46.74
59588;BME280;45412;54.472;18.464;2022-07-10T14:43:31;99641.35;;;20.42;47.20
59588;BME280;45412;54.472;18.464;2022-07-10T14:46:21;99638.19;;;20.54;46.09
59588;BME280;45412;54.472;18.464;2022-07-10T14:49:12;99649.14;;;20.41;44.48
59588;BME280;45412;54.472;18.464;2022-07-10T14:52:04;99652.64;;;20.22;43.69
59588;BME280;45412;54.472;18.464;2022-07-10T14:54:52;99662.71;;;20.06;43.18
59588;BME280;45412;54.472;18.464;2022-07-10T14:57:43;99660.38;;;19.94;42.24
59588;BME280;45412;54.472;18.464;2022-07-10T15:00:33;99660.36;;;20.00;42.60
59588;BME280;45412;54.472;18.464;2022-07-10T15:03:29;99662.36;;;20.16;42.91
59588;BME280;45412;54.472;18.464;2022-07-10T15:06:18;99661.04;;;20.10;44.64
59588;BME280;45412;54.472;18.464;2022-07-10T15:09:08;99663.96;;;20.15;47.26